sensor_id;sensor_type;location;lat;lon;timestamp;P1;durP1;ratioP1;P2;durP2;ratioP2
13933;SDS011;7039;52.168;9.866;2022-09-01T00:01:43;2.33;;;1.50;;
13933;SDS011;7039;52.168;9.866;2022-09-01T00:04:14;3.93;;;1.80;;
13933;SDS011;7039;52.168;9.866;2022-09-01T00:06:45;3.97;;;1.40;;
13933;SDS011;7039;52.168;9.866;2022-09-01T00:09:13;4.33;;;1.70;;
13933;SDS011;7039;52.168;9.866;2022-09-01T00:11:44;3.47;;;1.50;;
13933;SDS011;7039;52.168;9.866;2022-09-01T00:14:13;2.60;;;1.50;;
13933;SDS011;7039;52.168;9.866;2022-09-01T00:16:40;2.57;;;1.50;;
13933;SDS011;7039;52.168;9.866;2022-09-01T00:19:06;3.57;;;1.73;;
13933;SDS011;7039;52.168;9.866;2022-09-01T00:21:34;3.17;;;1.30;;
13933;SDS011;7039;52.168;9.866;2022-09-01T00:24:04;2.33;;;1.40;;
13933;SDS011;7039;52.168;9.866;2022-09-01T00:26:31;3.73;;;1.40;;
13933;SDS011;7039;52.168;9.866;2022-09-01T00:28:58;4.83;;;1.67;;
13933;SDS011;7039;52.168;9.866;2022-09-01T00:31:25;4.37;;;1.50;;
13933;SDS011;7039;52.168;9.866;2022-09-01T00:33:53;1.80;;;1.43;;
13933;SDS011;7039;52.168;9.866;2022-09-01T00:36:19;3.20;;;1.70;;
13933;SDS011;7039;52.168;9.866;2022-09-01T00:38:47;3.20;;;1.50;;
13933;SDS011;7039;52.168;9.866;2022-09-01T00:41:16;1.63;;;1.37;;
13933;SDS011;7039;52.168;9.866;2022-09-01T00:43:45;3.87;;;1.50;;
13933;SDS011;7039;52.168;9.866;2022-09-01T00:46:14;4.27;;;1.33;;
13933;SDS011;7039;52.168;9.866;2022-09-01T00:48:42;2.77;;;1.50;;
13933;SDS011;7039;52.168;9.866;2022-09-01T00:51:10;2.07;;;1.57;;
13933;SDS011;7039;52.168;9.866;2022-09-01T00:53:38;1.70;;;1.53;;
13933;SDS011;7039;52.168;9.866;2022-09-01T00:56:09;2.43;;;1.70;;
13933;SDS011;7039;52.168;9.866;2022-09-01T00:58:38;3.47;;;1.40;;
13933;SDS011;7039;52.168;9.866;2022-09-01T01:01:05;3.60;;;1.43;;
13933;SDS011;7039;52.168;9.866;2022-09-01T01:03:34;1.87;;;1.63;;
13933;SDS011;7039;52.168;9.866;2022-09-01T01:06:02;1.80;;;1.40;;
13933;SDS011;7039;52.168;9.866;2022-09-01T01:08:33;3.30;;;1.40;;
13933;SDS011;7039;52.168;9.866;2022-09-01T01:11:04;2.87;;;1.40;;
13933;SDS011;7039;52.168;9.866;2022-09-01T01:13:46;4.17;;;1.73;;
13933;SDS011;7039;52.168;9.866;2022-09-01T01:16:15;2.60;;;1.50;;
13933;SDS011;7039;52.168;9.866;2022-09-01T01:18:42;3.10;;;1.80;;
13933;SDS011;7039;52.168;9.866;2022-09-01T01:21:14;2.63;;;1.10;;
13933;SDS011;7039;52.168;9.866;2022-09-01T01:24:04;5.00;;;1.63;;
13933;SDS011;7039;52.168;9.866;2022-09-01T01:26:36;5.00;;;1.60;;
13933;SDS011;7039;52.168;9.866;2022-09-01T01:29:03;6.80;;;1.90;;
13933;SDS011;7039;52.168;9.866;2022-09-01T01:31:34;3.63;;;1.50;;
13933;SDS011;7039;52.168;9.866;2022-09-01T01:34:01;3.20;;;1.67;;
13933;SDS011;7039;52.168;9.866;2022-09-01T01:36:31;1.90;;;1.43;;
13933;SDS011;7039;52.168;9.866;2022-09-01T01:39:01;3.23;;;1.40;;
13933;SDS011;7039;52.168;9.866;2022-09-01T01:41:30;3.07;;;1.93;;
13933;SDS011;7039;52.168;9.866;2022-09-01T01:44:00;7.97;;;3.40;;
13933;SDS011;7039;52.168;9.866;2022-09-01T01:46:30;3.27;;;2.27;;
13933;SDS011;7039;52.168;9.866;2022-09-01T01:48:58;2.47;;;1.83;;
13933;SDS011;7039;52.168;9.866;2022-09-01T01:51:26;2.57;;;1.83;;
13933;SDS011;7039;52.168;9.866;2022-09-01T01:53:53;2.57;;;1.80;;
13933;SDS011;7039;52.168;9.866;2022-09-01T01:56:21;1.73;;;1.60;;
13933;SDS011;7039;52.168;9.866;2022-09-01T01:58:49;5.63;;;1.60;;
13933;SDS011;7039;52.168;9.866;2022-09-01T02:01:22;2.47;;;1.40;;
13933;SDS011;7039;52.168;9.866;2022-09-01T02:03:49;1.77;;;1.60;;
13933;SDS011;7039;52.168;9.866;2022-09-01T02:06:19;1.50;;;1.40;;
13933;SDS011;7039;52.168;9.866;2022-09-01T02:08:46;1.67;;;1.57;;
13933;SDS011;7039;52.168;9.866;2022-09-01T02:11:13;2.03;;;1.57;;
13933;SDS011;7039;52.168;9.866;2022-09-01T02:13:41;2.93;;;1.50;;
13933;SDS011;7039;52.168;9.866;2022-09-01T02:16:09;3.97;;;2.20;;
13933;SDS011;7039;52.168;9.866;2022-09-01T02:18:40;2.87;;;1.33;;
13933;SDS011;7039;52.168;9.866;2022-09-01T02:21:12;3.33;;;1.60;;
13933;SDS011;7039;52.168;9.866;2022-09-01T02:23:44;2.80;;;1.80;;
13933;SDS011;7039;52.168;9.866;2022-09-01T02:26:12;3.03;;;1.87;;
13933;SDS011;7039;52.168;9.866;2022-09-01T02:28:40;2.03;;;1.77;;
13933;SDS011;7039;52.168;9.866;2022-09-01T02:31:09;2.70;;;1.90;;
13933;SDS011;7039;52.168;9.866;2022-09-01T02:33:38;6.20;;;1.80;;
13933;SDS011;7039;52.168;9.866;2022-09-01T02:36:11;2.57;;;1.70;;
13933;SDS011;7039;52.168;9.866;2022-09-01T02:38:39;3.10;;;1.60;;
13933;SDS011;7039;52.168;9.866;2022-09-01T02:41:09;2.47;;;1.77;;
13933;SDS011;7039;52.168;9.866;2022-09-01T02:43:38;1.63;;;1.50;;
13933;SDS011;7039;52.168;9.866;2022-09-01T02:46:07;2.13;;;1.67;;
13933;SDS011;7039;52.168;9.866;2022-09-01T02:48:36;3.70;;;1.90;;
13933;SDS011;7039;52.168;9.866;2022-09-01T02:51:06;3.80;;;1.60;;
13933;SDS011;7039;52.168;9.866;2022-09-01T02:53:35;1.80;;;1.60;;
13933;SDS011;7039;52.168;9.866;2022-09-01T02:56:04;3.50;;;1.83;;
13933;SDS011;7039;52.168;9.866;2022-09-01T02:58:36;1.60;;;1.50;;
13933;SDS011;7039;52.168;9.866;2022-09-01T03:01:11;2.33;;;1.90;;
13933;SDS011;7039;52.168;9.866;2022-09-01T03:03:48;3.33;;;2.10;;
13933;SDS011;7039;52.168;9.866;2022-09-01T03:06:16;8.23;;;2.20;;
13933;SDS011;7039;52.168;9.866;2022-09-01T03:08:48;3.13;;;2.10;;
13933;SDS011;7039;52.168;9.866;2022-09-01T03:11:15;2.43;;;1.70;;
13933;SDS011;7039;52.168;9.866;2022-09-01T03:13:43;3.23;;;1.83;;
13933;SDS011;7039;52.168;9.866;2022-09-01T03:16:10;3.40;;;1.60;;
13933;SDS011;7039;52.168;9.866;2022-09-01T03:18:37;3.43;;;1.90;;
13933;SDS011;7039;52.168;9.866;2022-09-01T03:21:06;7.13;;;2.07;;
13933;SDS011;7039;52.168;9.866;2022-09-01T03:23:35;4.50;;;1.80;;
13933;SDS011;7039;52.168;9.866;2022-09-01T03:26:03;3.43;;;1.60;;
13933;SDS011;7039;52.168;9.866;2022-09-01T03:28:29;3.30;;;1.90;;
13933;SDS011;7039;52.168;9.866;2022-09-01T03:30:57;6.33;;;2.10;;
13933;SDS011;7039;52.168;9.866;2022-09-01T03:33:39;3.47;;;2.10;;
13933;SDS011;7039;52.168;9.866;2022-09-01T03:36:54;8.47;;;2.20;;
13933;SDS011;7039;52.168;9.866;2022-09-01T03:39:21;5.37;;;2.30;;
13933;SDS011;7039;52.168;9.866;2022-09-01T03:41:49;1.90;;;1.70;;
13933;SDS011;7039;52.168;9.866;2022-09-01T03:44:16;4.10;;;2.13;;
13933;SDS011;7039;52.168;9.866;2022-09-01T03:46:43;4.37;;;1.80;;
13933;SDS011;7039;52.168;9.866;2022-09-01T03:49:12;2.27;;;1.70;;
13933;SDS011;7039;52.168;9.866;2022-09-01T03:51:42;3.63;;;2.30;;
13933;SDS011;7039;52.168;9.866;2022-09-01T03:54:11;2.63;;;2.30;;
13933;SDS011;7039;52.168;9.866;2022-09-01T03:56:39;4.20;;;2.00;;
13933;SDS011;7039;52.168;9.866;2022-09-01T03:59:10;3.87;;;2.00;;
13933;SDS011;7039;52.168;9.866;2022-09-01T04:01:41;1.87;;;1.77;;
13933;SDS011;7039;52.168;9.866;2022-09-01T04:04:12;2.33;;;2.00;;
13933;SDS011;7039;52.168;9.866;2022-09-01T04:06:40;2.87;;;1.83;;
13933;SDS011;7039;52.168;9.866;2022-09-01T04:09:09;3.13;;;1.63;;
13933;SDS011;7039;52.168;9.866;2022-09-01T04:11:41;2.73;;;1.90;;
13933;SDS011;7039;52.168;9.866;2022-09-01T08:57:04;2.67;;;1.20;;
13933;SDS011;7039;52.168;9.866;2022-09-01T08:59:33;3.50;;;1.30;;
13933;SDS011;7039;52.168;9.866;2022-09-01T09:02:03;2.73;;;1.23;;
13933;SDS011;7039;52.168;9.866;2022-09-01T09:04:45;3.63;;;1.50;;
13933;SDS011;7039;52.168;9.866;2022-09-01T09:07:20;3.13;;;1.57;;
13933;SDS011;7039;52.168;9.866;2022-09-01T09:09:55;6.30;;;1.30;;
13933;SDS011;7039;52.168;9.866;2022-09-01T09:12:34;2.53;;;1.40;;
13933;SDS011;7039;52.168;9.866;2022-09-01T09:15:10;4.40;;;1.50;;
13933;SDS011;7039;52.168;9.866;2022-09-01T09:17:45;4.73;;;1.50;;
13933;SDS011;7039;52.168;9.866;2022-09-01T09:20:50;3.40;;;1.40;;
13933;SDS011;7039;52.168;9.866;2022-09-01T09:23:20;2.63;;;1.30;;
13933;SDS011;7039;52.168;9.866;2022-09-01T09:25:50;6.30;;;1.63;;
13933;SDS011;7039;52.168;9.866;2022-09-01T09:28:19;2.83;;;1.50;;
13933;SDS011;7039;52.168;9.866;2022-09-01T09:34:47;3.80;;;1.80;;
13933;SDS011;7039;52.168;9.866;2022-09-01T09:37:16;2.23;;;1.47;;
13933;SDS011;7039;52.168;9.866;2022-09-01T09:39:55;4.70;;;1.40;;
13933;SDS011;7039;52.168;9.866;2022-09-01T09:42:30;3.90;;;1.73;;
13933;SDS011;7039;52.168;9.866;2022-09-01T09:44:58;7.30;;;1.67;;
13933;SDS011;7039;52.168;9.866;2022-09-01T09:47:36;6.67;;;1.60;;
13933;SDS011;7039;52.168;9.866;2022-09-01T09:50:11;5.63;;;1.53;;
13933;SDS011;7039;52.168;9.866;2022-09-01T09:52:42;6.27;;;1.80;;
13933;SDS011;7039;52.168;9.866;2022-09-01T09:55:17;4.50;;;1.90;;
13933;SDS011;7039;52.168;9.866;2022-09-01T09:57:48;2.40;;;1.40;;
13933;SDS011;7039;52.168;9.866;2022-09-01T10:00:19;14.37;;;2.30;;
13933;SDS011;7039;52.168;9.866;2022-09-01T10:02:50;1.77;;;1.20;;
13933;SDS011;7039;52.168;9.866;2022-09-01T10:05:24;3.53;;;1.87;;
13933;SDS011;7039;52.168;9.866;2022-09-01T10:07:53;1.73;;;1.03;;
13933;SDS011;7039;52.168;9.866;2022-09-01T10:10:25;9.27;;;1.70;;
13933;SDS011;7039;52.168;9.866;2022-09-01T10:12:55;2.70;;;1.03;;
13933;SDS011;7039;52.168;9.866;2022-09-01T10:15:25;3.03;;;1.60;;
13933;SDS011;7039;52.168;9.866;2022-09-01T10:17:54;4.73;;;1.07;;
13933;SDS011;7039;52.168;9.866;2022-09-01T10:20:28;7.77;;;1.00;;
13933;SDS011;7039;52.168;9.866;2022-09-01T10:22:54;3.13;;;1.00;;
13933;SDS011;7039;52.168;9.866;2022-09-01T10:25:22;1.47;;;0.87;;
13933;SDS011;7039;52.168;9.866;2022-09-01T10:27:53;5.03;;;1.10;;
13933;SDS011;7039;52.168;9.866;2022-09-01T10:30:25;3.63;;;0.80;;
13933;SDS011;7039;52.168;9.866;2022-09-01T10:32:55;0.83;;;0.73;;
13933;SDS011;7039;52.168;9.866;2022-09-01T10:35:25;1.13;;;0.70;;
13933;SDS011;7039;52.168;9.866;2022-09-01T10:37:53;1.93;;;0.90;;
13933;SDS011;7039;52.168;9.866;2022-09-01T10:40:35;1.53;;;0.87;;
13933;SDS011;7039;52.168;9.866;2022-09-01T10:43:23;1.33;;;0.67;;
13933;SDS011;7039;52.168;9.866;2022-09-01T10:45:54;1.23;;;0.90;;
13933;SDS011;7039;52.168;9.866;2022-09-01T10:48:22;3.40;;;0.90;;
13933;SDS011;7039;52.168;9.866;2022-09-01T10:50:52;1.67;;;0.80;;
13933;SDS011;7039;52.168;9.866;2022-09-01T10:53:39;2.50;;;0.70;;
13933;SDS011;7039;52.168;9.866;2022-09-01T10:56:07;0.87;;;0.70;;
13933;SDS011;7039;52.168;9.866;2022-09-01T10:58:42;2.00;;;1.00;;
13933;SDS011;7039;52.168;9.866;2022-09-01T11:01:28;2.70;;;1.00;;
13933;SDS011;7039;52.168;9.866;2022-09-01T11:07:30;4.53;;;0.97;;
13933;SDS011;7039;52.168;9.866;2022-09-01T11:10:21;2.40;;;0.73;;
13933;SDS011;7039;52.168;9.866;2022-09-01T11:13:20;1.33;;;0.70;;
13933;SDS011;7039;52.168;9.866;2022-09-01T11:15:55;3.17;;;0.77;;
13933;SDS011;7039;52.168;9.866;2022-09-01T11:18:43;1.00;;;0.67;;
13933;SDS011;7039;52.168;9.866;2022-09-01T11:21:14;1.40;;;0.70;;
13933;SDS011;7039;52.168;9.866;2022-09-01T11:23:42;3.43;;;0.80;;
13933;SDS011;7039;52.168;9.866;2022-09-01T11:32:10;3.37;;;1.37;;
13933;SDS011;7039;52.168;9.866;2022-09-01T11:34:41;4.30;;;0.80;;
13933;SDS011;7039;52.168;9.866;2022-09-01T11:37:11;2.80;;;0.80;;
13933;SDS011;7039;52.168;9.866;2022-09-01T11:39:41;1.90;;;0.77;;
13933;SDS011;7039;52.168;9.866;2022-09-01T11:42:15;4.83;;;0.93;;
13933;SDS011;7039;52.168;9.866;2022-09-01T11:44:45;0.80;;;0.80;;
13933;SDS011;7039;52.168;9.866;2022-09-01T11:47:17;1.55;;;0.80;;
13933;SDS011;7039;52.168;9.866;2022-09-01T11:49:48;0.73;;;0.70;;
13933;SDS011;7039;52.168;9.866;2022-09-01T11:52:18;0.95;;;0.80;;
13933;SDS011;7039;52.168;9.866;2022-09-01T11:54:48;2.00;;;0.88;;
13933;SDS011;7039;52.168;9.866;2022-09-01T11:57:16;2.88;;;0.60;;
13933;SDS011;7039;52.168;9.866;2022-09-01T11:59:44;6.47;;;0.60;;
13933;SDS011;7039;52.168;9.866;2022-09-01T12:02:16;1.65;;;0.80;;
13933;SDS011;7039;52.168;9.866;2022-09-01T12:04:43;3.13;;;1.00;;
13933;SDS011;7039;52.168;9.866;2022-09-01T12:07:12;1.45;;;1.30;;
13933;SDS011;7039;52.168;9.866;2022-09-01T12:09:48;1.02;;;0.73;;
13933;SDS011;7039;52.168;9.866;2022-09-01T12:12:29;1.23;;;0.60;;
13933;SDS011;7039;52.168;9.866;2022-09-01T12:14:59;2.72;;;0.80;;
13933;SDS011;7039;52.168;9.866;2022-09-01T12:17:27;1.47;;;0.60;;
13933;SDS011;7039;52.168;9.866;2022-09-01T12:19:54;3.42;;;1.02;;
13933;SDS011;7039;52.168;9.866;2022-09-01T12:22:22;0.97;;;0.80;;
13933;SDS011;7039;52.168;9.866;2022-09-01T12:24:50;5.43;;;0.90;;
13933;SDS011;7039;52.168;9.866;2022-09-01T12:27:19;1.45;;;1.02;;
13933;SDS011;7039;52.168;9.866;2022-09-01T12:29:47;4.68;;;0.80;;
13933;SDS011;7039;52.168;9.866;2022-09-01T12:32:15;1.50;;;0.80;;
13933;SDS011;7039;52.168;9.866;2022-09-01T12:34:43;1.70;;;0.80;;
13933;SDS011;7039;52.168;9.866;2022-09-01T12:37:18;1.10;;;0.75;;
13933;SDS011;7039;52.168;9.866;2022-09-01T12:39:48;6.60;;;0.77;;
13933;SDS011;7039;52.168;9.866;2022-09-01T12:42:24;3.38;;;0.85;;
13933;SDS011;7039;52.168;9.866;2022-09-01T12:44:54;1.25;;;0.80;;
13933;SDS011;7039;52.168;9.866;2022-09-01T12:50:33;0.70;;;0.70;;
13933;SDS011;7039;52.168;9.866;2022-09-01T12:53:15;0.95;;;0.80;;
13933;SDS011;7039;52.168;9.866;2022-09-01T12:55:54;0.80;;;0.80;;
13933;SDS011;7039;52.168;9.866;2022-09-01T12:58:27;0.65;;;0.65;;
13933;SDS011;7039;52.168;9.866;2022-09-01T13:00:56;1.48;;;0.85;;
13933;SDS011;7039;52.168;9.866;2022-09-01T13:03:25;1.13;;;0.80;;
13933;SDS011;7039;52.168;9.866;2022-09-01T13:05:53;2.13;;;0.90;;
13933;SDS011;7039;52.168;9.866;2022-09-01T13:08:22;0.80;;;0.80;;
13933;SDS011;7039;52.168;9.866;2022-09-01T13:10:51;1.02;;;0.60;;
13933;SDS011;7039;52.168;9.866;2022-09-01T13:13:21;1.58;;;0.70;;
13933;SDS011;7039;52.168;9.866;2022-09-01T13:15:50;2.80;;;0.80;;
13933;SDS011;7039;52.168;9.866;2022-09-01T13:18:18;0.88;;;0.70;;
13933;SDS011;7039;52.168;9.866;2022-09-01T13:20:46;1.20;;;0.73;;
13933;SDS011;7039;52.168;9.866;2022-09-01T13:23:14;1.75;;;0.68;;
13933;SDS011;7039;52.168;9.866;2022-09-01T13:25:41;0.73;;;0.70;;
13933;SDS011;7039;52.168;9.866;2022-09-01T13:28:11;2.40;;;0.70;;
13933;SDS011;7039;52.168;9.866;2022-09-01T13:30:39;2.38;;;0.80;;
13933;SDS011;7039;52.168;9.866;2022-09-01T13:33:06;6.72;;;0.82;;
13933;SDS011;7039;52.168;9.866;2022-09-01T13:35:32;0.93;;;0.70;;
13933;SDS011;7039;52.168;9.866;2022-09-01T13:37:59;4.82;;;1.05;;
13933;SDS011;7039;52.168;9.866;2022-09-01T13:40:25;1.70;;;0.80;;
13933;SDS011;7039;52.168;9.866;2022-09-01T13:42:52;4.97;;;0.82;;
13933;SDS011;7039;52.168;9.866;2022-09-01T13:45:21;2.20;;;0.80;;
13933;SDS011;7039;52.168;9.866;2022-09-01T13:47:49;3.65;;;0.80;;
13933;SDS011;7039;52.168;9.866;2022-09-01T13:50:17;1.40;;;0.80;;
13933;SDS011;7039;52.168;9.866;2022-09-01T13:52:48;2.70;;;0.68;;
13933;SDS011;7039;52.168;9.866;2022-09-01T13:55:17;6.13;;;1.00;;
13933;SDS011;7039;52.168;9.866;2022-09-01T13:57:46;1.15;;;0.70;;
13933;SDS011;7039;52.168;9.866;2022-09-01T14:00:13;2.33;;;0.80;;
13933;SDS011;7039;52.168;9.866;2022-09-01T14:02:43;1.15;;;0.65;;
13933;SDS011;7039;52.168;9.866;2022-09-01T14:05:14;3.60;;;0.85;;
13933;SDS011;7039;52.168;9.866;2022-09-01T14:07:41;2.42;;;0.70;;
13933;SDS011;7039;52.168;9.866;2022-09-01T14:10:08;4.53;;;0.85;;
13933;SDS011;7039;52.168;9.866;2022-09-01T14:12:35;2.45;;;0.90;;
13933;SDS011;7039;52.168;9.866;2022-09-01T14:15:03;2.53;;;0.70;;
13933;SDS011;7039;52.168;9.866;2022-09-01T14:17:30;1.30;;;0.95;;
13933;SDS011;7039;52.168;9.866;2022-09-01T14:19:58;1.13;;;0.80;;
13933;SDS011;7039;52.168;9.866;2022-09-01T14:22:25;4.35;;;1.00;;
13933;SDS011;7039;52.168;9.866;2022-09-01T14:24:51;1.77;;;0.80;;
13933;SDS011;7039;52.168;9.866;2022-09-01T14:27:18;1.65;;;0.90;;
13933;SDS011;7039;52.168;9.866;2022-09-01T14:29:47;2.85;;;0.90;;
13933;SDS011;7039;52.168;9.866;2022-09-01T14:32:14;1.80;;;0.90;;
13933;SDS011;7039;52.168;9.866;2022-09-01T14:34:42;1.73;;;1.00;;
13933;SDS011;7039;52.168;9.866;2022-09-01T14:37:10;1.83;;;0.75;;
13933;SDS011;7039;52.168;9.866;2022-09-01T14:39:37;3.75;;;0.80;;
13933;SDS011;7039;52.168;9.866;2022-09-01T14:42:03;3.15;;;0.85;;
13933;SDS011;7039;52.168;9.866;2022-09-01T14:44:35;2.53;;;0.85;;
13933;SDS011;7039;52.168;9.866;2022-09-01T14:47:02;3.47;;;0.90;;
13933;SDS011;7039;52.168;9.866;2022-09-01T14:49:30;2.63;;;0.90;;
13933;SDS011;7039;52.168;9.866;2022-09-01T14:51:59;2.20;;;1.00;;
13933;SDS011;7039;52.168;9.866;2022-09-01T14:54:31;3.10;;;0.88;;
13933;SDS011;7039;52.168;9.866;2022-09-01T14:56:58;2.50;;;0.93;;
13933;SDS011;7039;52.168;9.866;2022-09-01T14:59:25;3.92;;;1.00;;
13933;SDS011;7039;52.168;9.866;2022-09-01T15:01:52;3.40;;;1.10;;
13933;SDS011;7039;52.168;9.866;2022-09-01T15:04:18;1.00;;;0.90;;
13933;SDS011;7039;52.168;9.866;2022-09-01T15:06:45;6.82;;;1.05;;
13933;SDS011;7039;52.168;9.866;2022-09-01T15:09:11;7.13;;;1.02;;
13933;SDS011;7039;52.168;9.866;2022-09-01T15:11:40;4.25;;;1.02;;
13933;SDS011;7039;52.168;9.866;2022-09-01T15:14:07;3.17;;;0.85;;
13933;SDS011;7039;52.168;9.866;2022-09-01T15:16:34;3.70;;;1.20;;
13933;SDS011;7039;52.168;9.866;2022-09-01T15:19:03;1.73;;;0.80;;
13933;SDS011;7039;52.168;9.866;2022-09-01T15:21:30;2.28;;;0.88;;
13933;SDS011;7039;52.168;9.866;2022-09-01T15:23:58;0.95;;;0.80;;
13933;SDS011;7039;52.168;9.866;2022-09-01T15:26:25;2.17;;;0.95;;
13933;SDS011;7039;52.168;9.866;2022-09-01T15:28:53;0.68;;;0.60;;
13933;SDS011;7039;52.168;9.866;2022-09-01T15:31:21;0.77;;;0.75;;
13933;SDS011;7039;52.168;9.866;2022-09-01T15:33:48;5.13;;;1.10;;
13933;SDS011;7039;52.168;9.866;2022-09-01T15:36:16;3.17;;;0.80;;
13933;SDS011;7039;52.168;9.866;2022-09-01T15:38:44;2.20;;;0.80;;
13933;SDS011;7039;52.168;9.866;2022-09-01T15:41:14;2.65;;;0.90;;
13933;SDS011;7039;52.168;9.866;2022-09-01T15:43:41;1.50;;;0.90;;
13933;SDS011;7039;52.168;9.866;2022-09-01T15:46:09;4.57;;;0.90;;
13933;SDS011;7039;52.168;9.866;2022-09-01T15:48:36;1.52;;;0.90;;
13933;SDS011;7039;52.168;9.866;2022-09-01T15:51:07;2.20;;;0.95;;
13933;SDS011;7039;52.168;9.866;2022-09-01T15:53:54;2.95;;;0.80;;
13933;SDS011;7039;52.168;9.866;2022-09-01T15:56:21;2.25;;;0.80;;
13933;SDS011;7039;52.168;9.866;2022-09-01T15:58:48;2.28;;;0.88;;
13933;SDS011;7039;52.168;9.866;2022-09-01T16:01:17;1.70;;;0.80;;
13933;SDS011;7039;52.168;9.866;2022-09-01T16:03:46;2.08;;;1.05;;
13933;SDS011;7039;52.168;9.866;2022-09-01T16:06:13;4.35;;;0.90;;
13933;SDS011;7039;52.168;9.866;2022-09-01T16:08:39;1.80;;;1.00;;
13933;SDS011;7039;52.168;9.866;2022-09-01T16:11:07;1.53;;;1.00;;
13933;SDS011;7039;52.168;9.866;2022-09-01T16:13:36;2.27;;;0.97;;
13933;SDS011;7039;52.168;9.866;2022-09-01T16:16:06;5.25;;;1.00;;
13933;SDS011;7039;52.168;9.866;2022-09-01T16:18:40;1.17;;;0.80;;
13933;SDS011;7039;52.168;9.866;2022-09-01T16:21:13;3.47;;;1.00;;
13933;SDS011;7039;52.168;9.866;2022-09-01T16:23:48;7.40;;;1.10;;
13933;SDS011;7039;52.168;9.866;2022-09-01T16:26:19;4.25;;;1.08;;
13933;SDS011;7039;52.168;9.866;2022-09-01T16:28:48;5.75;;;1.08;;
13933;SDS011;7039;52.168;9.866;2022-09-01T16:31:18;1.45;;;0.95;;
13933;SDS011;7039;52.168;9.866;2022-09-01T16:33:50;4.32;;;0.90;;
13933;SDS011;7039;52.168;9.866;2022-09-01T16:36:27;2.85;;;0.77;;
13933;SDS011;7039;52.168;9.866;2022-09-01T16:39:02;3.35;;;0.90;;
13933;SDS011;7039;52.168;9.866;2022-09-01T16:41:37;2.67;;;0.80;;
13933;SDS011;7039;52.168;9.866;2022-09-01T16:44:15;2.85;;;1.05;;
13933;SDS011;7039;52.168;9.866;2022-09-01T16:46:49;2.45;;;1.00;;
13933;SDS011;7039;52.168;9.866;2022-09-01T16:49:23;4.45;;;0.80;;
13933;SDS011;7039;52.168;9.866;2022-09-01T16:51:58;3.30;;;0.80;;
13933;SDS011;7039;52.168;9.866;2022-09-01T16:54:32;4.47;;;0.95;;
13933;SDS011;7039;52.168;9.866;2022-09-01T16:57:08;2.92;;;0.90;;
13933;SDS011;7039;52.168;9.866;2022-09-01T16:59:43;1.40;;;0.90;;
13933;SDS011;7039;52.168;9.866;2022-09-01T17:02:18;1.50;;;0.75;;
13933;SDS011;7039;52.168;9.866;2022-09-01T17:05:02;1.30;;;0.80;;
13933;SDS011;7039;52.168;9.866;2022-09-01T17:07:37;4.60;;;1.20;;
13933;SDS011;7039;52.168;9.866;2022-09-01T17:10:15;5.82;;;0.90;;
13933;SDS011;7039;52.168;9.866;2022-09-01T17:12:54;4.53;;;1.00;;
13933;SDS011;7039;52.168;9.866;2022-09-01T17:15:25;3.55;;;1.00;;
13933;SDS011;7039;52.168;9.866;2022-09-01T17:18:06;3.53;;;1.07;;
13933;SDS011;7039;52.168;9.866;2022-09-01T17:20:38;2.38;;;0.95;;
13933;SDS011;7039;52.168;9.866;2022-09-01T17:23:08;1.50;;;1.00;;
13933;SDS011;7039;52.168;9.866;2022-09-01T17:25:40;4.05;;;0.90;;
13933;SDS011;7039;52.168;9.866;2022-09-01T17:28:14;2.90;;;0.90;;
13933;SDS011;7039;52.168;9.866;2022-09-01T17:30:50;4.78;;;0.90;;
13933;SDS011;7039;52.168;9.866;2022-09-01T17:33:25;5.22;;;0.98;;
13933;SDS011;7039;52.168;9.866;2022-09-01T17:36:04;1.73;;;1.05;;
13933;SDS011;7039;52.168;9.866;2022-09-01T17:38:39;1.98;;;0.63;;
13933;SDS011;7039;52.168;9.866;2022-09-01T17:41:13;1.40;;;0.93;;
13933;SDS011;7039;52.168;9.866;2022-09-01T17:43:49;2.60;;;1.23;;
13933;SDS011;7039;52.168;9.866;2022-09-01T17:46:38;2.03;;;0.73;;
13933;SDS011;7039;52.168;9.866;2022-09-01T17:49:11;5.13;;;0.70;;
13933;SDS011;7039;52.168;9.866;2022-09-01T17:51:49;2.10;;;0.63;;
13933;SDS011;7039;52.168;9.866;2022-09-01T17:54:25;2.93;;;0.60;;
13933;SDS011;7039;52.168;9.866;2022-09-01T17:57:00;0.90;;;0.77;;
13933;SDS011;7039;52.168;9.866;2022-09-01T17:59:32;1.33;;;0.80;;
13933;SDS011;7039;52.168;9.866;2022-09-01T18:02:11;2.40;;;0.60;;
13933;SDS011;7039;52.168;9.866;2022-09-01T18:04:54;5.93;;;0.60;;
13933;SDS011;7039;52.168;9.866;2022-09-01T18:07:38;1.80;;;0.73;;
13933;SDS011;7039;52.168;9.866;2022-09-01T18:10:20;1.73;;;0.90;;
13933;SDS011;7039;52.168;9.866;2022-09-01T18:12:54;1.93;;;0.80;;
13933;SDS011;7039;52.168;9.866;2022-09-01T18:15:25;3.87;;;0.90;;
13933;SDS011;7039;52.168;9.866;2022-09-01T18:17:53;1.80;;;0.77;;
13933;SDS011;7039;52.168;9.866;2022-09-01T18:20:26;0.87;;;0.67;;
13933;SDS011;7039;52.168;9.866;2022-09-01T18:23:02;2.40;;;0.80;;
13933;SDS011;7039;52.168;9.866;2022-09-01T18:25:34;4.70;;;0.67;;
13933;SDS011;7039;52.168;9.866;2022-09-01T18:28:03;0.77;;;0.60;;
13933;SDS011;7039;52.168;9.866;2022-09-01T18:30:31;1.13;;;0.40;;
13933;SDS011;7039;52.168;9.866;2022-09-01T18:33:06;4.73;;;0.80;;
13933;SDS011;7039;52.168;9.866;2022-09-01T18:35:49;2.27;;;0.70;;
13933;SDS011;7039;52.168;9.866;2022-09-01T18:38:29;6.77;;;0.80;;
13933;SDS011;7039;52.168;9.866;2022-09-01T18:41:06;3.33;;;0.70;;
13933;SDS011;7039;52.168;9.866;2022-09-01T18:43:43;1.10;;;0.80;;
13933;SDS011;7039;52.168;9.866;2022-09-01T18:46:16;5.03;;;0.87;;
13933;SDS011;7039;52.168;9.866;2022-09-01T18:48:53;4.23;;;0.70;;
13933;SDS011;7039;52.168;9.866;2022-09-01T18:51:32;2.30;;;0.63;;
13933;SDS011;7039;52.168;9.866;2022-09-01T18:54:12;3.13;;;0.90;;
13933;SDS011;7039;52.168;9.866;2022-09-01T18:56:43;2.50;;;0.87;;
13933;SDS011;7039;52.168;9.866;2022-09-01T19:02:42;1.60;;;0.70;;
13933;SDS011;7039;52.168;9.866;2022-09-01T19:05:22;3.43;;;0.73;;
13933;SDS011;7039;52.168;9.866;2022-09-01T19:08:00;5.07;;;0.70;;
13933;SDS011;7039;52.168;9.866;2022-09-01T19:10:38;4.23;;;0.70;;
13933;SDS011;7039;52.168;9.866;2022-09-01T19:13:11;0.90;;;0.63;;
13933;SDS011;7039;52.168;9.866;2022-09-01T19:15:47;4.90;;;0.60;;
13933;SDS011;7039;52.168;9.866;2022-09-01T19:18:22;1.13;;;0.73;;
13933;SDS011;7039;52.168;9.866;2022-09-01T19:20:59;3.43;;;0.90;;
13933;SDS011;7039;52.168;9.866;2022-09-01T19:23:32;1.97;;;0.70;;
13933;SDS011;7039;52.168;9.866;2022-09-01T19:26:09;2.77;;;0.70;;
13933;SDS011;7039;52.168;9.866;2022-09-01T19:31:39;2.20;;;0.60;;
13933;SDS011;7039;52.168;9.866;2022-09-01T19:37:31;2.90;;;0.90;;
13933;SDS011;7039;52.168;9.866;2022-09-01T19:39:58;9.50;;;1.10;;
13933;SDS011;7039;52.168;9.866;2022-09-01T19:42:27;6.70;;;0.87;;
13933;SDS011;7039;52.168;9.866;2022-09-01T19:45:01;2.07;;;0.90;;
13933;SDS011;7039;52.168;9.866;2022-09-01T19:47:33;3.67;;;0.90;;
13933;SDS011;7039;52.168;9.866;2022-09-01T19:50:06;3.43;;;0.93;;
13933;SDS011;7039;52.168;9.866;2022-09-01T19:52:39;2.27;;;1.00;;
13933;SDS011;7039;52.168;9.866;2022-09-01T19:55:16;1.30;;;1.00;;
13933;SDS011;7039;52.168;9.866;2022-09-01T19:57:51;3.10;;;1.00;;
13933;SDS011;7039;52.168;9.866;2022-09-01T20:00:25;5.37;;;0.90;;
13933;SDS011;7039;52.168;9.866;2022-09-01T21:32:21;5.50;;;1.50;;
13933;SDS011;7039;52.168;9.866;2022-09-01T21:34:47;4.75;;;1.40;;
13933;SDS011;7039;52.168;9.866;2022-09-01T21:37:14;2.45;;;1.10;;
13933;SDS011;7039;52.168;9.866;2022-09-01T21:39:42;4.40;;;1.20;;
13933;SDS011;7039;52.168;9.866;2022-09-01T21:42:09;2.50;;;1.20;;
13933;SDS011;7039;52.168;9.866;2022-09-01T21:44:37;4.28;;;1.33;;
13933;SDS011;7039;52.168;9.866;2022-09-01T21:47:05;3.97;;;1.10;;
13933;SDS011;7039;52.168;9.866;2022-09-01T21:49:33;6.68;;;1.30;;
13933;SDS011;7039;52.168;9.866;2022-09-01T21:51:59;2.90;;;1.38;;
13933;SDS011;7039;52.168;9.866;2022-09-01T21:54:26;4.37;;;1.27;;
13933;SDS011;7039;52.168;9.866;2022-09-01T21:56:52;4.90;;;1.50;;
13933;SDS011;7039;52.168;9.866;2022-09-01T21:59:19;3.10;;;1.50;;
13933;SDS011;7039;52.168;9.866;2022-09-01T22:01:46;3.70;;;1.27;;
13933;SDS011;7039;52.168;9.866;2022-09-01T22:04:13;2.85;;;1.20;;